sensor_id;sensor_type;location;lat;lon;timestamp;pressure;altitude;pressure_sealevel;temperature;humidity
17593;BME280;8915;51.760;14.300;2023-02-26T00:02:00;100271.81;;;-1.73;100.00
17593;BME280;8915;51.760;14.300;2023-02-26T00:04:28;100280.38;;;-1.70;100.00
17593;BME280;8915;51.760;14.300;2023-02-26T00:06:54;100277.81;;;-1.72;100.00
17593;BME280;8915;51.760;14.300;2023-02-26T00:09:21;100286.31;;;-1.72;100.00
17593;BME280;8915;51.760;14.300;2023-02-26T00:11:49;100297.38;;;-1.73;100.00
17593;BME280;8915;51.760;14.300;2023-02-26T00:14:16;100295.72;;;-1.70;100.00
17593;BME280;8915;51.760;14.300;2023-02-26T00:16:46;100301.66;;;-1.72;100.00
17593;BME280;8915;51.760;14.300;2023-02-26T00:19:15;100301.69;;;-1.70;100.00
17593;BME280;8915;51.760;14.300;2023-02-26T00:21:42;100297.41;;;-1.71;100.00
17593;BME280;8915;51.760;14.300;2023-02-26T00:24:08;100303.41;;;-1.69;100.00
17593;BME280;8915;51.760;14.300;2023-02-26T00:26:35;100307.66;;;-1.69;100.00
17593;BME280;8915;51.760;14.300;2023-02-26T00:29:03;100305.94;;;-1.69;100.00
17593;BME280;8915;51.760;14.300;2023-02-26T00:31:30;100305.06;;;-1.71;100.00
17593;BME280;8915;51.760;14.300;2023-02-26T00:33:57;100308.50;;;-1.70;100.00
17593;BME280;8915;51.760;14.300;2023-02-26T00:36:30;100311.88;;;-1.72;100.00
17593;BME280;8915;51.760;14.300;2023-02-26T00:39:06;100320.41;;;-1.71;100.00
17593;BME280;8915;51.760;14.300;2023-02-26T00:41:39;100325.50;;;-1.73;100.00
17593;BME280;8915;51.760;14.300;2023-02-26T00:44:07;100325.50;;;-1.73;100.00
17593;BME280;8915;51.760;14.300;2023-02-26T00:46:40;100319.63;;;-1.68;100.00
17593;BME280;8915;51.760;14.300;2023-02-26T00:49:16;100323.84;;;-1.69;100.00
17593;BME280;8915;51.760;14.300;2023-02-26T00:51:47;100323.00;;;-1.69;100.00
17593;BME280;8915;51.760;14.300;2023-02-26T00:54:18;100327.22;;;-1.72;100.00
17593;BME280;8915;51.760;14.300;2023-02-26T00:56:45;100329.78;;;-1.72;100.00
17593;BME280;8915;51.760;14.300;2023-02-26T00:59:13;100325.56;;;-1.69;100.00
17593;BME280;8915;51.760;14.300;2023-02-26T01:01:40;100328.09;;;-1.69;100.00
17593;BME280;8915;51.760;14.300;2023-02-26T01:04:07;100330.63;;;-1.71;100.00
17593;BME280;8915;51.760;14.300;2023-02-26T01:06:38;100335.75;;;-1.71;100.00
17593;BME280;8915;51.760;14.300;2023-02-26T01:09:13;100333.16;;;-1.73;100.00
17593;BME280;8915;51.760;14.300;2023-02-26T01:11:41;100340.00;;;-1.72;100.00
17593;BME280;8915;51.760;14.300;2023-02-26T01:14:08;100341.75;;;-1.69;100.00
17593;BME280;8915;51.760;14.300;2023-02-26T01:16:43;100346.81;;;-1.72;100.00
17593;BME280;8915;51.760;14.300;2023-02-26T01:19:18;100349.38;;;-1.72;100.00
17593;BME280;8915;51.760;14.300;2023-02-26T01:21:50;100343.38;;;-1.74;100.00
17593;BME280;8915;51.760;14.300;2023-02-26T01:24:21;100357.88;;;-1.73;100.00
17593;BME280;8915;51.760;14.300;2023-02-26T01:26:49;100355.28;;;-1.75;100.00
17593;BME280;8915;51.760;14.300;2023-02-26T01:29:16;100356.09;;;-1.77;100.00
17593;BME280;8915;51.760;14.300;2023-02-26T01:31:48;100358.72;;;-1.74;100.00
17593;BME280;8915;51.760;14.300;2023-02-26T01:34:18;100362.91;;;-1.76;100.00
17593;BME280;8915;51.760;14.300;2023-02-26T01:36:52;100362.13;;;-1.74;100.00
17593;BME280;8915;51.760;14.300;2023-02-26T01:39:25;100365.47;;;-1.76;100.00
17593;BME280;8915;51.760;14.300;2023-02-26T01:41:55;100378.31;;;-1.73;100.00
17593;BME280;8915;51.760;14.300;2023-02-26T01:44:26;100380.81;;;-1.76;100.00
17593;BME280;8915;51.760;14.300;2023-02-26T01:47:05;100384.25;;;-1.76;100.00
17593;BME280;8915;51.760;14.300;2023-02-26T01:49:36;100386.84;;;-1.74;100.00
17593;BME280;8915;51.760;14.300;2023-02-26T01:52:05;100380.84;;;-1.75;100.00
17593;BME280;8915;51.760;14.300;2023-02-26T01:54:34;100384.13;;;-1.80;100.00
17593;BME280;8915;51.760;14.300;2023-02-26T01:57:05;100393.56;;;-1.79;100.00
17593;BME280;8915;51.760;14.300;2023-02-26T01:59:35;100395.19;;;-1.81;100.00
17593;BME280;8915;51.760;14.300;2023-02-26T02:02:07;100402.00;;;-1.82;100.00
17593;BME280;8915;51.760;14.300;2023-02-26T02:04:35;100409.66;;;-1.82;100.00
17593;BME280;8915;51.760;14.300;2023-02-26T02:07:03;100407.97;;;-1.81;100.00
17593;BME280;8915;51.760;14.300;2023-02-26T02:09:30;100415.63;;;-1.81;100.00
17593;BME280;8915;51.760;14.300;2023-02-26T02:12:08;100410.50;;;-1.83;100.00
17593;BME280;8915;51.760;14.300;2023-02-26T02:14:44;100414.81;;;-1.80;100.00
17593;BME280;8915;51.760;14.300;2023-02-26T02:17:18;100413.97;;;-1.81;100.00
17593;BME280;8915;51.760;14.300;2023-02-26T02:19:58;100418.19;;;-1.83;100.00
17593;BME280;8915;51.760;14.300;2023-02-26T02:23:09;100431.81;;;-1.82;100.00
17593;BME280;8915;51.760;14.300;2023-02-26T02:25:53;100426.66;;;-1.84;100.00
17593;BME280;8915;51.760;14.300;2023-02-26T02:28:33;100437.75;;;-1.83;100.00
17593;BME280;8915;51.760;14.300;2023-02-26T02:31:06;100437.72;;;-1.85;100.00
17593;BME280;8915;51.760;14.300;2023-02-26T02:33:42;100448.84;;;-1.83;100.00
17593;BME280;8915;51.760;14.300;2023-02-26T02:36:12;100446.25;;;-1.84;100.00
17593;BME280;8915;51.760;14.300;2023-02-26T02:38:45;100445.41;;;-1.83;100.00
17593;BME280;8915;51.760;14.300;2023-02-26T02:41:16;100453.03;;;-1.86;100.00
17593;BME280;8915;51.760;14.300;2023-02-26T02:43:47;100454.63;;;-1.92;100.00
17593;BME280;8915;51.760;14.300;2023-02-26T02:46:19;100456.41;;;-1.87;100.00
17593;BME280;8915;51.760;14.300;2023-02-26T02:48:53;100457.22;;;-1.88;100.00
17593;BME280;8915;51.760;14.300;2023-02-26T02:51:25;100464.94;;;-1.87;100.00
17593;BME280;8915;51.760;14.300;2023-02-26T02:53:56;100470.97;;;-1.83;100.00
17593;BME280;8915;51.760;14.300;2023-02-26T02:56:33;100471.81;;;-1.84;100.00
17593;BME280;8915;51.760;14.300;2023-02-26T02:59:05;100470.94;;;-1.85;100.00
17593;BME280;8915;51.760;14.300;2023-02-26T03:01:36;100475.22;;;-1.84;100.00
17593;BME280;8915;51.760;14.300;2023-02-26T03:04:07;100476.03;;;-1.86;100.00
17593;BME280;8915;51.760;14.300;2023-02-26T03:06:35;100474.31;;;-1.87;100.00
17593;BME280;8915;51.760;14.300;2023-02-26T03:09:07;100477.63;;;-1.92;100.00
17593;BME280;8915;51.760;14.300;2023-02-26T03:11:35;100487.03;;;-1.89;100.00
17593;BME280;8915;51.760;14.300;2023-02-26T03:14:02;100487.91;;;-1.88;100.00
17593;BME280;8915;51.760;14.300;2023-02-26T03:16:48;100485.34;;;-1.88;100.00
17593;BME280;8915;51.760;14.300;2023-02-26T03:19:21;100493.84;;;-1.89;100.00
17593;BME280;8915;51.760;14.300;2023-02-26T03:25:23;100498.03;;;-1.93;100.00
17593;BME280;8915;51.760;14.300;2023-02-26T03:27:55;100503.97;;;-1.94;100.00
17593;BME280;8915;51.760;14.300;2023-02-26T03:30:31;100506.41;;;-2.00;100.00
17593;BME280;8915;51.760;14.300;2023-02-26T03:33:04;100508.91;;;-2.02;100.00
17593;BME280;8915;51.760;14.300;2023-02-26T03:35:41;100516.53;;;-2.03;100.00
17593;BME280;8915;51.760;14.300;2023-02-26T03:38:13;100521.56;;;-2.06;100.00
17593;BME280;8915;51.760;14.300;2023-02-26T03:40:44;100528.28;;;-2.10;100.00
17593;BME280;8915;51.760;14.300;2023-02-26T03:43:17;100519.69;;;-2.14;100.00
17593;BME280;8915;51.760;14.300;2023-02-26T03:45:48;100530.72;;;-2.15;100.00
17593;BME280;8915;51.760;14.300;2023-02-26T03:48:26;100531.41;;;-2.22;100.00
17593;BME280;8915;51.760;14.300;2023-02-26T03:50:58;100532.94;;;-2.30;100.00
17593;BME280;8915;51.760;14.300;2023-02-26T03:53:48;100543.81;;;-2.37;100.00
17593;BME280;8915;51.760;14.300;2023-02-26T03:56:24;100548.00;;;-2.41;100.00
17593;BME280;8915;51.760;14.300;2023-02-26T03:58:59;100551.38;;;-2.42;100.00
17593;BME280;8915;51.760;14.300;2023-02-26T04:01:48;100559.91;;;-2.40;100.00
17593;BME280;8915;51.760;14.300;2023-02-26T04:04:22;100561.72;;;-2.36;100.00
17593;BME280;8915;51.760;14.300;2023-02-26T04:06:51;100557.50;;;-2.35;100.00
17593;BME280;8915;51.760;14.300;2023-02-26T04:09:20;100563.47;;;-2.35;100.00
17593;BME280;8915;51.760;14.300;2023-02-26T04:11:48;100565.25;;;-2.31;100.00
17593;BME280;8915;51.760;14.300;2023-02-26T04:14:17;100573.84;;;-2.29;100.00
17593;BME280;8915;51.760;14.300;2023-02-26T04:16:44;100579.00;;;-2.25;100.00
17593;BME280;8915;51.760;14.300;2023-02-26T04:19:13;100573.94;;;-2.24;100.00
17593;BME280;8915;51.760;14.300;2023-02-26T04:21:42;100577.41;;;-2.22;100.00
17593;BME280;8915;51.760;14.300;2023-02-26T04:24:10;100585.97;;;-2.20;100.00
17593;BME280;8915;51.760;14.300;2023-02-26T04:26:36;100589.47;;;-2.16;100.00
17593;BME280;8915;51.760;14.300;2023-02-26T04:29:03;100589.44;;;-2.18;100.00
17593;BME280;8915;51.760;14.300;2023-02-26T04:31:29;100595.50;;;-2.14;100.00
17593;BME280;8915;51.760;14.300;2023-02-26T04:33:56;100593.69;;;-2.17;100.00
17593;BME280;8915;51.760;14.300;2023-02-26T04:36:22;100591.19;;;-2.15;100.00
17593;BME280;8915;51.760;14.300;2023-02-26T04:38:50;100591.19;;;-2.15;100.00
17593;BME280;8915;51.760;14.300;2023-02-26T04:41:17;100598.00;;;-2.16;100.00
17593;BME280;8915;51.760;14.300;2023-02-26T04:43:46;100605.75;;;-2.11;100.00
17593;BME280;8915;51.760;14.300;2023-02-26T04:46:32;100605.72;;;-2.14;100.00
17593;BME280;8915;51.760;14.300;2023-02-26T04:48:58;100603.97;;;-2.15;100.00
17593;BME280;8915;51.760;14.300;2023-02-26T04:51:25;100605.72;;;-2.14;100.00
17593;BME280;8915;51.760;14.300;2023-02-26T04:53:53;100614.22;;;-2.14;100.00
17593;BME280;8915;51.760;14.300;2023-02-26T04:56:19;100626.09;;;-2.16;100.00
17593;BME280;8915;51.760;14.300;2023-02-26T04:58:46;100622.69;;;-2.15;100.00
17593;BME280;8915;51.760;14.300;2023-02-26T05:01:18;100627.84;;;-2.13;100.00
17593;BME280;8915;51.760;14.300;2023-02-26T05:03:44;100638.88;;;-2.16;100.00
17593;BME280;8915;51.760;14.300;2023-02-26T05:06:10;100644.03;;;-2.14;100.00
17593;BME280;8915;51.760;14.300;2023-02-26T05:08:37;100645.69;;;-2.15;100.00
17593;BME280;8915;51.760;14.300;2023-02-26T05:11:08;100651.69;;;-2.14;100.00
17593;BME280;8915;51.760;14.300;2023-02-26T05:13:34;100656.81;;;-2.14;100.00
17593;BME280;8915;51.760;14.300;2023-02-26T05:16:01;100652.50;;;-2.15;100.00
17593;BME280;8915;51.760;14.300;2023-02-26T05:18:28;100658.47;;;-2.16;100.00
17593;BME280;8915;51.760;14.300;2023-02-26T05:20:56;100664.34;;;-2.19;100.00
17593;BME280;8915;51.760;14.300;2023-02-26T05:23:24;100661.72;;;-2.20;100.00
17593;BME280;8915;51.760;14.300;2023-02-26T05:25:53;100659.06;;;-2.25;100.00
17593;BME280;8915;51.760;14.300;2023-02-26T05:28:21;100664.06;;;-2.30;100.00
17593;BME280;8915;51.760;14.300;2023-02-26T05:30:52;100672.38;;;-2.37;100.00
17593;BME280;8915;51.760;14.300;2023-02-26T05:33:19;100673.00;;;-2.45;100.00
17593;BME280;8915;51.760;14.300;2023-02-26T05:35:46;100674.53;;;-2.51;100.00
17593;BME280;8915;51.760;14.300;2023-02-26T05:38:15;100682.88;;;-2.58;100.00
17593;BME280;8915;51.760;14.300;2023-02-26T05:40:42;100687.81;;;-2.62;100.00
17593;BME280;8915;51.760;14.300;2023-02-26T05:43:09;100691.94;;;-2.68;100.00
17593;BME280;8915;51.760;14.300;2023-02-26T05:45:36;100691.78;;;-2.74;100.00
17593;BME280;8915;51.760;14.300;2023-02-26T05:48:03;100697.56;;;-2.79;100.00
17593;BME280;8915;51.760;14.300;2023-02-26T05:50:29;100700.03;;;-2.82;100.00
17593;BME280;8915;51.760;14.300;2023-02-26T05:52:56;100703.31;;;-2.87;100.00
17593;BME280;8915;51.760;14.300;2023-02-26T05:55:23;100711.78;;;-2.88;100.00
17593;BME280;8915;51.760;14.300;2023-02-26T05:57:49;100710.97;;;-2.87;100.00
17593;BME280;8915;51.760;14.300;2023-02-26T06:00:16;100711.00;;;-2.85;100.00
17593;BME280;8915;51.760;14.300;2023-02-26T06:02:44;100715.28;;;-2.84;100.00
17593;BME280;8915;51.760;14.300;2023-02-26T06:05:11;100723.09;;;-2.79;100.00
17593;BME280;8915;51.760;14.300;2023-02-26T06:07:37;100724.91;;;-2.75;100.00
17593;BME280;8915;51.760;14.300;2023-02-26T06:10:06;100725.75;;;-2.75;100.00
17593;BME280;8915;51.760;14.300;2023-02-26T06:12:33;100736.94;;;-2.71;100.00
17593;BME280;8915;51.760;14.300;2023-02-26T06:14:59;100731.88;;;-2.70;100.00
17593;BME280;8915;51.760;14.300;2023-02-26T06:17:26;100743.03;;;-2.66;100.00
17593;BME280;8915;51.760;14.300;2023-02-26T06:19:54;100744.03;;;-2.61;100.00
17593;BME280;8915;51.760;14.300;2023-02-26T06:22:20;100751.75;;;-2.59;100.00
17593;BME280;8915;51.760;14.300;2023-02-26T06:24:46;100756.00;;;-2.60;100.00
17593;BME280;8915;51.760;14.300;2023-02-26T06:27:13;100752.66;;;-2.57;100.00
17593;BME280;8915;51.760;14.300;2023-02-26T06:29:39;100759.56;;;-2.55;100.00
17593;BME280;8915;51.760;14.300;2023-02-26T06:32:06;100773.28;;;-2.51;100.00
17593;BME280;8915;51.760;14.300;2023-02-26T06:34:32;100774.13;;;-2.51;100.00
17593;BME280;8915;51.760;14.300;2023-02-26T06:37:00;100785.19;;;-2.50;100.00
17593;BME280;8915;51.760;14.300;2023-02-26T06:39:26;100782.75;;;-2.47;100.00
17593;BME280;8915;51.760;14.300;2023-02-26T06:41:56;100791.41;;;-2.42;100.00
17593;BME280;8915;51.760;14.300;2023-02-26T06:44:23;100789.75;;;-2.40;100.00
17593;BME280;8915;51.760;14.300;2023-02-26T06:46:49;100796.66;;;-2.37;100.00
17593;BME280;8915;51.760;14.300;2023-02-26T06:49:16;100793.31;;;-2.35;100.00
17593;BME280;8915;51.760;14.300;2023-02-26T06:51:42;100801.03;;;-2.33;100.00
17593;BME280;8915;51.760;14.300;2023-02-26T06:54:10;100808.84;;;-2.29;100.00
17593;BME280;8915;51.760;14.300;2023-02-26T06:56:36;100811.47;;;-2.25;100.00
17593;BME280;8915;51.760;14.300;2023-02-26T06:59:03;100814.09;;;-2.22;100.00
17593;BME280;8915;51.760;14.300;2023-02-26T07:01:30;100822.69;;;-2.20;100.00
17593;BME280;8915;51.760;14.300;2023-02-26T07:03:57;100821.06;;;-2.17;100.00
17593;BME280;8915;51.760;14.300;2023-02-26T07:06:23;100826.31;;;-2.12;100.00
17593;BME280;8915;51.760;14.300;2023-02-26T07:08:49;100822.06;;;-2.12;100.00
17593;BME280;8915;51.760;14.300;2023-02-26T07:11:17;100823.06;;;-2.06;100.00
17593;BME280;8915;51.760;14.300;2023-02-26T07:13:43;100829.03;;;-2.07;100.00
17593;BME280;8915;51.760;14.300;2023-02-26T07:16:10;100828.19;;;-2.06;100.00
17593;BME280;8915;51.760;14.300;2023-02-26T07:18:36;100843.72;;;-2.00;100.00
17593;BME280;8915;51.760;14.300;2023-02-26T07:21:03;100840.25;;;-2.01;100.00
17593;BME280;8915;51.760;14.300;2023-02-26T07:23:30;100848.78;;;-2.02;100.00
17593;BME280;8915;51.760;14.300;2023-02-26T07:25:57;100846.25;;;-2.00;100.00
17593;BME280;8915;51.760;14.300;2023-02-26T07:28:25;100858.94;;;-2.03;100.00
17593;BME280;8915;51.760;14.300;2023-02-26T07:30:53;100866.66;;;-2.02;100.00
17593;BME280;8915;51.760;14.300;2023-02-26T07:33:19;100869.22;;;-2.02;100.00
17593;BME280;8915;51.760;14.300;2023-02-26T07:35:46;100865.81;;;-2.01;100.00
17593;BME280;8915;51.760;14.300;2023-02-26T07:38:13;100876.09;;;-1.99;100.00
17593;BME280;8915;51.760;14.300;2023-02-26T07:40:39;100876.09;;;-1.99;100.00
17593;BME280;8915;51.760;14.300;2023-02-26T07:43:05;100877.09;;;-1.94;100.00
17593;BME280;8915;51.760;14.300;2023-02-26T07:45:34;100884.81;;;-1.93;100.00
17593;BME280;8915;51.760;14.300;2023-02-26T07:48:01;100884.16;;;-1.85;100.00
17593;BME280;8915;51.760;14.300;2023-02-26T07:50:27;100890.97;;;-1.86;100.00
17593;BME280;8915;51.760;14.300;2023-02-26T07:52:54;100896.19;;;-1.83;100.00
17593;BME280;8915;51.760;14.300;2023-02-26T07:55:21;100897.88;;;-1.82;100.00
17593;BME280;8915;51.760;14.300;2023-02-26T07:57:47;100899.63;;;-1.81;100.00
17593;BME280;8915;51.760;14.300;2023-02-26T08:00:15;100901.31;;;-1.81;100.00
17593;BME280;8915;51.760;14.300;2023-02-26T08:02:43;100897.16;;;-1.78;100.00
17593;BME280;8915;51.760;14.300;2023-02-26T08:05:10;100906.41;;;-1.81;100.00
17593;BME280;8915;51.760;14.300;2023-02-26T08:07:36;100903.00;;;-1.82;100.00
17593;BME280;8915;51.760;14.300;2023-02-26T08:10:03;100908.16;;;-1.80;100.00
17593;BME280;8915;51.760;14.300;2023-02-26T08:12:30;100913.13;;;-1.85;100.00
17593;BME280;8915;51.760;14.300;2023-02-26T08:14:57;100915.69;;;-1.85;100.00
17593;BME280;8915;51.760;14.300;2023-02-26T08:17:23;100918.19;;;-1.88;100.00
17593;BME280;8915;51.760;14.300;2023-02-26T08:19:51;100926.59;;;-1.91;100.00
17593;BME280;8915;51.760;14.300;2023-02-26T08:22:17;100929.16;;;-1.91;100.00
17593;BME280;8915;51.760;14.300;2023-02-26T08:24:44;100939.66;;;-1.81;100.00
17593;BME280;8915;51.760;14.300;2023-02-26T08:27:10;100942.44;;;-1.74;100.00
17593;BME280;8915;51.760;14.300;2023-02-26T08:29:37;100941.84;;;-1.65;100.00
17593;BME280;8915;51.760;14.300;2023-02-26T08:32:04;100951.44;;;-1.58;100.00
17593;BME280;8915;51.760;14.300;2023-02-26T08:34:31;100961.88;;;-1.50;100.00
17593;BME280;8915;51.760;14.300;2023-02-26T08:36:59;100955.31;;;-1.40;100.00
17593;BME280;8915;51.760;14.300;2023-02-26T08:39:25;100960.66;;;-1.33;100.00
17593;BME280;8915;51.760;14.300;2023-02-26T08:41:51;100962.50;;;-1.27;100.00
17593;BME280;8915;51.760;14.300;2023-02-26T08:44:18;100983.34;;;-1.13;100.00
17593;BME280;8915;51.760;14.300;2023-02-26T08:46:44;100982.88;;;-1.00;100.00
17593;BME280;8915;51.760;14.300;2023-02-26T08:49:11;100988.50;;;-0.80;100.00
17593;BME280;8915;51.760;14.300;2023-02-26T08:51:37;100992.09;;;-0.73;100.00
17593;BME280;8915;51.760;14.300;2023-02-26T08:54:05;100994.88;;;-0.64;100.00
17593;BME280;8915;51.760;14.300;2023-02-26T08:56:31;101001.13;;;-0.54;100.00
17593;BME280;8915;51.760;14.300;2023-02-26T08:58:58;101000.47;;;-0.45;100.00
17593;BME280;8915;51.760;14.300;2023-02-26T09:01:24;101009.84;;;-0.47;100.00
17593;BME280;8915;51.760;14.300;2023-02-26T09:03:50;101010.50;;;-0.54;100.00
17593;BME280;8915;51.760;14.300;2023-02-26T09:06:17;101018.13;;;-0.58;100.00
17593;BME280;8915;51.760;14.300;2023-02-26T09:08:43;101017.41;;;-0.52;100.00
17593;BME280;8915;51.760;14.300;2023-02-26T09:11:11;101029.44;;;-0.48;100.00
17593;BME280;8915;51.760;14.300;2023-02-26T09:13:37;101036.28;;;-0.48;100.00
17593;BME280;8915;51.760;14.300;2023-02-26T09:16:05;101038.13;;;-0.43;100.00
17593;BME280;8915;51.760;14.300;2023-02-26T09:18:32;101034.91;;;-0.34;100.00
17593;BME280;8915;51.760;14.300;2023-02-26T09:20:59;101036.88;;;-0.24;100.00
17593;BME280;8915;51.760;14.300;2023-02-26T09:23:27;101050.00;;;-0.11;100.00
17593;BME280;8915;51.760;14.300;2023-02-26T09:25:54;101055.59;;;0.07;100.00
17593;BME280;8915;51.760;14.300;2023-02-26T09:28:24;101052.97;;;0.06;100.00
17593;BME280;8915;51.760;14.300;2023-02-26T09:30:50;101057.22;;;0.04;100.00
17593;BME280;8915;51.760;14.300;2023-02-26T09:33:17;101059.22;;;0.17;100.00
17593;BME280;8915;51.760;14.300;2023-02-26T09:35:46;101073.88;;;0.23;100.00
17593;BME280;8915;51.760;14.300;2023-02-26T09:38:13;101075.69;;;0.27;100.00
17593;BME280;8915;51.760;14.300;2023-02-26T09:40:43;101083.31;;;0.24;100.00
17593;BME280;8915;51.760;14.300;2023-02-26T09:43:33;101089.50;;;0.32;100.00
17593;BME280;8915;51.760;14.300;2023-02-26T09:46:04;101100.56;;;0.31;100.00
17593;BME280;8915;51.760;14.300;2023-02-26T09:48:33;101097.00;;;0.24;100.00
17593;BME280;8915;51.760;14.300;2023-02-26T09:51:03;101103.00;;;0.26;100.00
17593;BME280;8915;51.760;14.300;2023-02-26T09:53:37;101098.22;;;0.40;100.00
17593;BME280;8915;51.760;14.300;2023-02-26T09:56:07;101104.19;;;0.39;100.00
17593;BME280;8915;51.760;14.300;2023-02-26T09:58:38;101108.44;;;0.38;100.00
17593;BME280;8915;51.760;14.300;2023-02-26T10:01:14;101120.28;;;0.33;100.00
17593;BME280;8915;51.760;14.300;2023-02-26T10:03:54;101123.53;;;0.26;100.00
17593;BME280;8915;51.760;14.300;2023-02-26T10:06:25;101128.66;;;0.25;100.00
17593;BME280;8915;51.760;14.300;2023-02-26T10:09:05;101127.84;;;0.27;100.00
17593;BME280;8915;51.760;14.300;2023-02-26T10:11:38;101132.16;;;0.28;100.00
17593;BME280;8915;51.760;14.300;2023-02-26T10:14:15;101138.75;;;0.18;100.00
17593;BME280;8915;51.760;14.300;2023-02-26T10:16:47;101143.38;;;0.33;100.00
17593;BME280;8915;51.760;14.300;2023-02-26T10:19:18;101142.81;;;0.45;100.00
17593;BME280;8915;51.760;14.300;2023-02-26T10:21:48;101161.66;;;0.47;100.00
17593;BME280;8915;51.760;14.300;2023-02-26T10:24:18;101161.63;;;0.44;100.00
17593;BME280;8915;51.760;14.300;2023-02-26T10:26:50;101168.34;;;0.39;100.00
17593;BME280;8915;51.760;14.300;2023-02-26T10:29:22;101161.66;;;0.47;100.00
17593;BME280;8915;51.760;14.300;2023-02-26T10:32:00;101167.09;;;0.60;100.00
17593;BME280;8915;51.760;14.300;2023-02-26T10:34:33;101172.00;;;0.50;100.00
17593;BME280;8915;51.760;14.300;2023-02-26T10:37:04;101174.56;;;0.50;100.00
17593;BME280;8915;51.760;14.300;2023-02-26T10:39:38;101175.81;;;0.66;100.00
17593;BME280;8915;51.760;14.300;2023-02-26T10:42:14;101181.69;;;0.62;100.00
17593;BME280;8915;51.760;14.300;2023-02-26T10:44:49;101175.03;;;0.69;100.00
17593;BME280;8915;51.760;14.300;2023-02-26T10:47:32;101179.34;;;0.71;100.00
17593;BME280;8915;51.760;14.300;2023-02-26T10:50:05;101187.72;;;0.64;100.00
17593;BME280;8915;51.760;14.300;2023-02-26T10:52:32;101183.56;;;0.69;100.00
17593;BME280;8915;51.760;14.300;2023-02-26T10:55:07;101188.63;;;0.66;100.00
17593;BME280;8915;51.760;14.300;2023-02-26T11:01:39;101214.53;;;0.77;100.00
17593;BME280;8915;51.760;14.300;2023-02-26T11:04:07;101199.19;;;0.79;100.00
17593;BME280;8915;51.760;14.300;2023-02-26T11:06:39;101200.94;;;0.80;100.00
17593;BME280;8915;51.760;14.300;2023-02-26T11:09:17;101221.06;;;0.63;100.00
17593;BME280;8915;51.760;14.300;2023-02-26T11:11:51;101209.09;;;0.63;100.00
17593;BME280;8915;51.760;14.300;2023-02-26T11:14:18;101213.47;;;0.67;100.00
17593;BME280;8915;51.760;14.300;2023-02-26T11:16:49;101206.50;;;0.62;100.00
17593;BME280;8915;51.760;14.300;2023-02-26T11:19:19;101222.69;;;0.59;100.00
17593;BME280;8915;51.760;14.300;2023-02-26T11:21:49;101210.72;;;0.60;100.00
17593;BME280;8915;51.760;14.300;2023-02-26T11:24:20;101216.63;;;0.55;100.00
17593;BME280;8915;51.760;14.300;2023-02-26T11:26:49;101212.50;;;0.62;100.00
17593;BME280;8915;51.760;14.300;2023-02-26T11:29:18;101214.34;;;0.68;100.00
17593;BME280;8915;51.760;14.300;2023-02-26T11:31:49;101217.59;;;0.61;100.00
17593;BME280;8915;51.760;14.300;2023-02-26T11:34:21;101232.81;;;0.53;100.00
17593;BME280;8915;51.760;14.300;2023-02-26T11:36:48;101225.84;;;0.49;100.00
17593;BME280;8915;51.760;14.300;2023-02-26T11:39:16;101231.28;;;0.61;100.00
17593;BME280;8915;51.760;14.300;2023-02-26T11:41:44;101229.25;;;0.84;100.00
17593;BME280;8915;51.760;14.300;2023-02-26T11:44:14;101236.38;;;0.96;100.00
17593;BME280;8915;51.760;14.300;2023-02-26T11:46:44;101232.19;;;1.00;100.00
17593;BME280;8915;51.760;14.300;2023-02-26T11:49:14;101233.19;;;1.06;100.00
17593;BME280;8915;51.760;14.300;2023-02-26T11:51:42;101234.47;;;1.25;100.00
17593;BME280;8915;51.760;14.300;2023-02-26T11:54:20;101245.72;;;1.30;100.00
17593;BME280;8915;51.760;14.300;2023-02-26T11:56:46;101241.28;;;1.23;100.00
17593;BME280;8915;51.760;14.300;2023-02-26T11:59:17;101231.13;;;1.29;100.00
17593;BME280;8915;51.760;14.300;2023-02-26T12:01:44;101237.28;;;1.36;100.00
17593;BME280;8915;51.760;14.300;2023-02-26T12:04:15;101241.81;;;1.49;100.00
17593;BME280;8915;51.760;14.300;2023-02-26T12:06:45;101237.75;;;1.59;100.00
17593;BME280;8915;51.760;14.300;2023-02-26T12:09:12;101225.16;;;1.72;100.00
17593;BME280;8915;51.760;14.300;2023-02-26T12:11:51;101234.78;;;1.82;100.00
17593;BME280;8915;51.760;14.300;2023-02-26T12:14:37;101227.25;;;1.93;100.00
17593;BME280;8915;51.760;14.300;2023-02-26T12:17:14;101221.41;;;2.00;100.00
17593;BME280;8915;51.760;14.300;2023-02-26T12:19:51;101233.00;;;1.78;100.00
17593;BME280;8915;51.760;14.300;2023-02-26T12:22:28;101234.91;;;1.89;100.00
17593;BME280;8915;51.760;14.300;2023-02-26T12:25:15;101242.69;;;1.93;100.00
17593;BME280;8915;51.760;14.300;2023-02-26T12:28:00;101248.59;;;1.87;100.00
17593;BME280;8915;51.760;14.300;2023-02-26T12:30:47;101247.53;;;1.77;100.00
17593;BME280;8915;51.760;14.300;2023-02-26T12:33:28;101268.94;;;1.35;100.00
17593;BME280;8915;51.760;14.300;2023-02-26T12:36:08;101272.25;;;1.29;100.00
17593;BME280;8915;51.760;14.300;2023-02-26T12:38:48;101260.09;;;1.22;100.00
17593;BME280;8915;51.760;14.300;2023-02-26T12:41:27;101267.41;;;1.05;100.00
17593;BME280;8915;51.760;14.300;2023-02-26T12:44:02;101263.16;;;1.06;100.00
17593;BME280;8915;51.760;14.300;2023-02-26T12:46:55;101260.16;;;0.87;100.00
17593;BME280;8915;51.760;14.300;2023-02-26T12:52:35;101251.63;;;0.88;100.00
17593;BME280;8915;51.760;14.300;2023-02-26T12:55:22;101255.13;;;0.92;100.00
17593;BME280;8915;51.760;14.300;2023-02-26T12:58:07;101253.34;;;0.89;100.00
17593;BME280;8915;51.760;14.300;2023-02-26T13:00:47;101252.97;;;0.72;100.00
17593;BME280;8915;51.760;14.300;2023-02-26T13:03:54;101261.34;;;0.65;100.00
17593;BME280;8915;51.760;14.300;2023-02-26T13:06:39;101253.97;;;0.79;100.00
17593;BME280;8915;51.760;14.300;2023-02-26T13:09:19;101264.72;;;0.99;100.00
17593;BME280;8915;51.760;14.300;2023-02-26T13:11:59;101257.41;;;1.18;100.00